createdAt,value
2018-01-14T00:01:38.522Z,3.8
2018-01-14T00:11:52.377Z,3.7
2018-01-14T00:22:08.018Z,3.6
2018-01-14T00:32:22.221Z,3.5
2018-01-14T00:42:36.021Z,3.5
2018-01-14T00:52:49.970Z,3.5
2018-01-14T01:03:03.705Z,3.4
2018-01-14T01:13:19.054Z,3.2
2018-01-14T01:23:33.245Z,3.3
2018-01-14T01:33:47.314Z,3.2
2018-01-14T01:44:02.334Z,3.2
2018-01-14T01:54:16.819Z,3.2
2018-01-14T02:04:31.850Z,3.1
2018-01-14T02:14:45.846Z,3
2018-01-14T02:25:00.803Z,3.1
2018-01-14T02:35:14.935Z,3.1
2018-01-14T02:45:29.591Z,3.1
2018-01-14T02:55:44.567Z,3
2018-01-14T03:05:58.944Z,2.9
2018-01-14T03:16:12.896Z,2.9
2018-01-14T03:26:27.444Z,3
2018-01-14T03:36:42.654Z,2.9
2018-01-14T03:46:57.110Z,2.8
2018-01-14T03:57:12.313Z,2.8
2018-01-14T04:07:26.140Z,2.7
2018-01-14T04:17:40.152Z,2.8
2018-01-14T04:27:55.436Z,2.7
2018-01-14T04:38:11.088Z,2.7
2018-01-14T04:48:25.362Z,2.6
2018-01-14T04:58:40.610Z,2.7
2018-01-14T05:08:55.047Z,2.7
2018-01-14T05:19:10.374Z,2.6
2018-01-14T05:29:24.644Z,2.6
2018-01-14T05:39:39.806Z,2.7
2018-01-14T05:49:55.160Z,2.6
2018-01-14T06:00:10.324Z,2.6
2018-01-14T06:10:24.903Z,2.7
2018-01-14T06:20:39.433Z,2.6
2018-01-14T06:30:53.084Z,2.5
2018-01-14T06:41:07.011Z,2.6
2018-01-14T06:51:21.031Z,2.4
2018-01-14T07:01:35.713Z,2.5
2018-01-14T07:11:50.774Z,2.4
2018-01-14T07:22:04.515Z,2.4
2018-01-14T07:32:19.301Z,2.4
2018-01-14T07:42:34.562Z,2.4
2018-01-14T07:52:48.248Z,2.4
2018-01-14T08:03:03.485Z,2.4
2018-01-14T08:13:18.754Z,2.5
2018-01-14T08:23:32.882Z,2.3
2018-01-14T08:33:47.160Z,2.4
2018-01-14T08:44:02.389Z,2.4
2018-01-14T08:54:16.545Z,2.4
2018-01-14T09:04:31.795Z,2.5
2018-01-14T09:14:46.549Z,2.6
2018-01-14T09:25:01.467Z,2.7
2018-01-14T09:35:15.124Z,2.8
2018-01-14T09:45:29.235Z,2.9
2018-01-14T09:55:43.017Z,3.1
2018-01-14T10:05:57.919Z,3.4
2018-01-14T10:16:13.568Z,3.5
2018-01-14T10:26:29.053Z,3.6
2018-01-14T10:36:43.801Z,3.7
2018-01-14T10:46:57.859Z,3.7
2018-01-14T10:57:11.559Z,3.7
2018-01-14T11:07:25.296Z,3.8
2018-01-14T11:17:39.382Z,3.9
2018-01-14T11:27:53.985Z,4
2018-01-14T11:38:09.174Z,4.2
2018-01-14T11:48:24.269Z,4.2
2018-01-14T11:58:38.320Z,4.4
2018-01-14T12:08:52.510Z,4.9
2018-01-14T12:19:06.534Z,5.3
2018-01-14T12:29:20.862Z,4.8
2018-01-14T12:39:36.197Z,4.7
2018-01-14T12:49:50.132Z,4.7
2018-01-14T13:00:05.337Z,4.6
2018-01-14T13:10:20.738Z,4.9
2018-01-14T13:20:34.927Z,5
2018-01-14T13:30:50.152Z,4.8
2018-01-14T13:41:04.533Z,4.8
2018-01-14T13:51:18.498Z,4.7
2018-01-14T14:01:33.374Z,4.7
2018-01-14T14:11:48.689Z,4.5
2018-01-14T14:22:02.981Z,4.5
2018-01-14T14:32:16.662Z,4.3
2018-01-14T14:42:31.996Z,4.3
2018-01-14T14:52:46.529Z,4.1
2018-01-14T15:03:00.843Z,4.1
2018-01-14T15:13:15.509Z,4
2018-01-14T15:23:29.784Z,3.7
2018-01-14T15:33:44.624Z,3.1
2018-01-14T15:43:59.193Z,3.3
2018-01-14T15:54:13.848Z,3
2018-01-14T16:04:28.650Z,2.5
2018-01-14T16:14:43.047Z,1.7
2018-01-14T16:24:57.671Z,0.8
2018-01-14T16:35:11.812Z,0.7
2018-01-14T16:45:26.985Z,0.4
2018-01-14T16:55:42.071Z,1.1
2018-01-14T17:05:57.456Z,1.5
2018-01-14T17:16:12.619Z,1.2
2018-01-14T17:26:27.862Z,1.7
2018-01-14T17:36:42.725Z,1.5
2018-01-14T17:46:56.919Z,1.9
2018-01-14T17:57:11.737Z,1.8
2018-01-14T18:07:27.080Z,1.6
2018-01-14T18:17:41.626Z,1.7
2018-01-14T18:27:55.809Z,1.5
2018-01-14T18:38:09.724Z,1.4
2018-01-14T18:48:24.086Z,0.9
2018-01-14T18:58:37.987Z,0.8
2018-01-14T19:08:51.648Z,0.7
2018-01-14T19:19:07.065Z,0.6
2018-01-14T19:29:21.612Z,0.5
2018-01-14T19:39:37.014Z,0.7
2018-01-14T19:49:51.662Z,0.8
2018-01-14T20:00:06.969Z,0.7
2018-01-14T20:10:21.179Z,0.5
2018-01-14T20:20:36.060Z,0.5
2018-01-14T20:30:50.108Z,0.6
2018-01-14T20:41:04.133Z,0.6
2018-01-14T20:51:19.275Z,0.5
2018-01-14T21:01:33.591Z,0.5
2018-01-14T21:11:48.757Z,0.5
2018-01-14T21:22:02.522Z,0.6
2018-01-14T21:32:16.577Z,0.8
2018-01-14T21:42:31.758Z,0.6
2018-01-14T21:52:46.722Z,0.7
2018-01-14T22:03:00.689Z,0.5
2018-01-14T22:13:14.880Z,0.8
2018-01-14T22:23:29.590Z,0.7
2018-01-14T22:33:44.733Z,0.7
2018-01-14T22:43:58.486Z,0.6
2018-01-14T22:54:13.941Z,0.4
2018-01-14T23:04:28.497Z,0.6
2018-01-14T23:14:42.219Z,0.8
2018-01-14T23:24:57.732Z,0.6
2018-01-14T23:35:12.705Z,0.6
2018-01-14T23:45:27.257Z,0.7
2018-01-14T23:55:41.214Z,0.7
